createdAt,value
2022-09-30T00:03:41.624Z,2.59
2022-09-30T00:18:42.291Z,2.63
2022-09-30T00:33:42.363Z,2.36
2022-09-30T00:48:42.485Z,2.18
2022-09-30T01:03:42.593Z,2.10
2022-09-30T01:18:42.703Z,1.87
2022-09-30T01:33:42.842Z,1.80
2022-09-30T01:48:42.917Z,1.68
2022-09-30T02:03:43.067Z,1.65
2022-09-30T02:18:43.141Z,1.58
2022-09-30T02:33:43.821Z,1.54
2022-09-30T02:48:43.900Z,1.55
2022-09-30T03:03:44.030Z,1.41
2022-09-30T03:18:44.115Z,1.26
2022-09-30T03:33:44.282Z,1.15
2022-09-30T03:48:44.375Z,0.94
2022-09-30T04:03:44.497Z,0.96
2022-09-30T04:18:44.580Z,0.91
2022-09-30T04:33:44.672Z,0.79
2022-09-30T04:48:44.789Z,0.98
2022-09-30T05:03:44.889Z,0.88
2022-09-30T05:18:44.995Z,0.86
2022-09-30T05:33:45.149Z,1.02
2022-09-30T05:48:45.309Z,1.36
2022-09-30T06:03:46.326Z,1.70
2022-09-30T06:18:46.458Z,3.05
2022-09-30T06:33:47.843Z,4.82
2022-09-30T06:48:47.967Z,6.11
2022-09-30T07:03:51.482Z,7.45
2022-09-30T07:18:53.164Z,8.79
2022-09-30T07:33:53.341Z,9.64
2022-09-30T07:48:53.448Z,10.45
2022-09-30T08:03:53.537Z,11.39
2022-09-30T08:18:53.705Z,12.56
2022-09-30T08:33:53.787Z,13.87
2022-09-30T08:48:53.917Z,15.39
2022-09-30T09:03:53.968Z,16.48
2022-09-30T09:18:54.123Z,17.71
2022-09-30T09:33:54.206Z,18.52
2022-09-30T09:48:54.297Z,18.87
2022-09-30T10:03:54.590Z,19.43
2022-09-30T10:18:54.720Z,19.65
2022-09-30T10:33:54.608Z,20.32
2022-09-30T10:48:54.730Z,20.74
2022-09-30T11:03:54.989Z,20.55
2022-09-30T11:18:55.056Z,20.97
2022-09-30T11:33:55.034Z,20.92
2022-09-30T11:48:55.155Z,20.58
2022-09-30T12:03:55.408Z,20.87
2022-09-30T12:18:55.586Z,20.69
2022-09-30T12:33:55.662Z,19.62
2022-09-30T12:48:55.801Z,20.73
2022-09-30T13:03:55.890Z,20.61
2022-09-30T13:18:55.986Z,21.06
2022-09-30T13:33:56.054Z,21.10
2022-09-30T13:48:56.157Z,21.14
2022-09-30T14:03:56.341Z,21.58
2022-09-30T14:18:56.443Z,21.65
2022-09-30T14:33:56.444Z,21.54
2022-09-30T14:48:56.587Z,21.58
2022-09-30T15:03:56.621Z,20.98
2022-09-30T15:18:56.757Z,19.88
2022-09-30T15:33:56.804Z,18.66
2022-09-30T15:48:56.905Z,17.84
2022-09-30T16:03:57.022Z,16.93
2022-09-30T16:18:57.197Z,15.75
2022-09-30T16:33:57.221Z,14.60
2022-09-30T16:48:57.302Z,14.09
2022-09-30T17:03:57.404Z,13.33
2022-09-30T17:18:57.539Z,12.47
2022-09-30T17:33:57.574Z,11.58
2022-09-30T17:48:57.713Z,10.78
2022-09-30T18:03:57.807Z,9.99
2022-09-30T18:18:58.007Z,9.38
2022-09-30T18:33:58.009Z,8.83
2022-09-30T18:48:58.216Z,8.37
2022-09-30T19:03:58.301Z,7.95
2022-09-30T19:18:58.454Z,7.46
2022-09-30T19:34:00.684Z,7.15
2022-09-30T19:49:00.904Z,6.89
2022-09-30T20:04:00.963Z,6.54
2022-09-30T20:19:02.566Z,6.22
2022-09-30T20:34:02.521Z,6.09
2022-09-30T20:49:02.618Z,5.82
2022-09-30T21:04:02.701Z,5.65
2022-09-30T21:19:02.856Z,5.51
2022-09-30T21:34:03.028Z,5.21
2022-09-30T21:49:03.197Z,5.03
2022-09-30T22:04:03.738Z,4.85
2022-09-30T22:19:04.031Z,4.86
2022-09-30T22:34:03.939Z,4.82
2022-09-30T22:49:04.098Z,4.75
2022-09-30T23:04:04.360Z,4.94
2022-09-30T23:19:04.432Z,4.73
2022-09-30T23:34:04.506Z,4.67
2022-09-30T23:49:05.136Z,4.40
